Pagrindinis puslapis
METAR-TAF:

METAR-TAF

Oro uostai :

Amanas, Jordanija

platuma: 31-59N, ilguma: 035-59E, Aukštis: 767 m

Dabartinis oras

Ataskaita buvo paskelbta 44 minutes, ne 04:00 UTC
Ramus vėjas
Temperatūra 20°C
Drėgmė 49%
Slėgis 1016 hPa
Matomumas 10 km arba daugiau
nėra debesų žemiau 1500 m ir nėra kamuolinių lietaus debesų

METAR: OJAM 220400Z 00000KT CAVOK 20/09 Q1016 NOSIG

Laikas: 07:44 (04:44 UTC)

Prognozė

Ataskaita buvo paskelbta 5 valandos ir 44 minutes, ne 23:00 UTC
Prognozė galioja nuo 22 metu 00 UTC su 23 metu 06 UTC
Vėjas 8 kt iš Vakarų/Šiaurės Vakarų
Matomumas: 5000 m
migla
Tikimybė 30%
nuo 22 metu 03 UTC su 22 metu 06 UTC
Vėjas 2 kt nuo kintamojo kryptimis
Matomumas: 3000 m
migla

TAF: OJAM 212300Z 2200/2306 30008KT 5000 HZ NSC PROB30 2203/2206 VRB02KT 3000 HZ

Orai ataskaitas ir orų prognozės (METAR, TAF).

turimą stotys yra geltonos ir raudonos taškus žemėlapyje.

Perkelti pele per norėdami pamatyti stoties vardą.

Tada spustelėkite, norėdami matyti oro stebėjimo ir prognozės.

Norėdami pakeisti žemėlapį: spustelėkite ant žalios mygtukų su juodo kryžiaus žemyn,; žalią mygtuką su brūkšneliu, jei norite nutolinti; arba žalių rodyklių gretimoms žemėlapius.


METAR-TAF: